Time;durP1;ratioP1;P1;durP2;ratioP2;P2;SDS_P1;SDS_P2;PMS_P1;PMS_P2;Temp;Humidity;BMP_temperature;BMP_pressure;BME280_temperature;BME280_humidity;BME280_pressure;Samples;Min_cycle;Max_cycle;Signal;HPM_P1;HPM_P2
2022/06/24 00:00:40;;;;;;;10.38;3.55;;;25.00;54.30;;;;;;5076789;28;20056;-44
2022/06/24 00:03:15;;;;;;;4.72;2.90;;;24.90;54.40;;;;;;5082385;28;20059;-50
2022/06/24 00:05:43;;;;;;;8.88;3.25;;;24.80;54.40;;;;;;5080512;28;20060;-58
2022/06/24 00:08:10;;;;;;;7.57;3.25;;;24.70;54.60;;;;;;5081565;28;20510;-57
2022/06/24 00:10:38;;;;;;;8.52;2.85;;;24.70;54.90;;;;;;5077571;28;20063;-60
2022/06/24 00:13:08;;;;;;;5.50;2.65;;;24.50;55.10;;;;;;5080324;28;20048;-58
2022/06/24 00:15:37;;;;;;;6.85;2.55;;;24.50;55.30;;;;;;5080096;28;20381;-60
2022/06/24 00:18:13;;;;;;;9.35;2.85;;;24.40;55.40;;;;;;5080525;28;20434;-60
2022/06/24 00:20:43;;;;;;;7.50;2.78;;;24.40;55.60;;;;;;5079066;28;20503;-60
2022/06/24 00:23:10;;;;;;;6.82;2.67;;;24.30;55.60;;;;;;5079012;28;20052;-60
2022/06/24 00:25:39;;;;;;;6.78;2.20;;;24.20;55.80;;;;;;5077624;28;20052;-58
2022/06/24 00:28:10;;;;;;;5.43;2.13;;;24.10;55.80;;;;;;5080873;28;20059;-56
2022/06/24 00:30:39;;;;;;;7.53;2.50;;;24.10;56.20;;;;;;5079329;28;20060;-57
2022/06/24 00:33:11;;;;;;;5.85;2.47;;;24.00;56.50;;;;;;5078516;28;20048;-58
2022/06/24 00:35:40;;;;;;;6.53;2.40;;;24.00;56.70;;;;;;5081535;28;20056;-59
2022/06/24 00:38:28;;;;;;;5.97;2.40;;;23.90;56.60;;;;;;5079844;28;20412;-58
2022/06/24 00:40:57;;;;;;;5.18;1.83;;;23.80;56.90;;;;;;5077369;28;20067;-59
2022/06/24 00:43:33;;;;;;;9.30;2.35;;;23.80;56.80;;;;;;5079326;28;20419;-55
2022/06/24 00:46:06;;;;;;;6.80;2.55;;;23.80;56.90;;;;;;5076894;28;20067;-56
2022/06/24 00:48:38;;;;;;;9.25;2.25;;;23.70;57.10;;;;;;5081164;28;20126;-58
2022/06/24 00:51:07;;;;;;;7.50;2.13;;;23.70;57.00;;;;;;5072552;28;20048;-56
2022/06/24 00:53:43;;;;;;;6.57;2.28;;;23.70;56.90;;;;;;5081253;28;20050;-57
2022/06/24 00:56:12;;;;;;;8.23;2.03;;;23.60;57.30;;;;;;5078894;28;20063;-59
2022/06/24 00:58:50;;;;;;;3.40;1.75;;;23.60;57.10;;;;;;5080109;28;20048;-59
2022/06/24 01:01:17;;;;;;;5.72;1.92;;;23.60;57.20;;;;;;5075774;28;20051;-55
2022/06/24 01:03:45;;;;;;;6.90;2.05;;;23.60;57.20;;;;;;5079736;28;20491;-54
2022/06/24 01:06:13;;;;;;;5.10;2.10;;;23.50;57.20;;;;;;5080391;28;20495;-55
2022/06/24 01:08:40;;;;;;;8.45;2.22;;;23.50;57.10;;;;;;5080504;28;20048;-58
2022/06/24 01:11:08;;;;;;;9.82;2.00;;;23.50;57.30;;;;;;5076391;28;20059;-54
2022/06/24 01:13:35;;;;;;;6.75;2.00;;;23.50;57.40;;;;;;5078666;28;20048;-57
2022/06/24 01:16:05;;;;;;;4.90;2.10;;;23.40;57.50;;;;;;5076776;28;20732;-57
2022/06/24 01:18:32;;;;;;;6.85;1.90;;;23.40;57.80;;;;;;5078091;28;20048;-57
2022/06/24 01:21:00;;;;;;;3.33;1.77;;;23.40;57.70;;;;;;5076378;28;20055;-55
2022/06/24 01:23:28;;;;;;;7.25;1.60;;;23.40;57.70;;;;;;5077826;28;20056;-56
2022/06/24 01:25:56;;;;;;;5.07;1.77;;;23.30;57.80;;;;;;5075133;28;20051;-58
2022/06/24 01:28:23;;;;;;;5.70;2.00;;;23.30;57.80;;;;;;5078117;28;20048;-59
2022/06/24 01:30:51;;;;;;;7.20;1.88;;;23.30;57.90;;;;;;5075844;28;20059;-56
2022/06/24 01:33:18;;;;;;;5.78;1.88;;;23.30;58.10;;;;;;5079595;28;20063;-55
2022/06/24 01:35:46;;;;;;;6.72;1.88;;;23.30;58.20;;;;;;5080853;28;20416;-56
2022/06/24 01:38:13;;;;;;;7.28;1.98;;;23.30;58.30;;;;;;5075235;28;20048;-55
2022/06/24 01:40:42;;;;;;;8.00;2.17;;;23.20;58.30;;;;;;5073672;28;20411;-59
2022/06/24 01:43:09;;;;;;;5.95;1.58;;;23.20;58.40;;;;;;5077685;28;20427;-56
2022/06/24 01:45:37;;;;;;;3.92;2.10;;;23.20;58.40;;;;;;5079219;28;20066;-54
2022/06/24 01:48:05;;;;;;;4.82;1.70;;;23.10;58.50;;;;;;5080164;28;20399;-57
2022/06/24 01:50:32;;;;;;;7.65;1.80;;;23.10;58.60;;;;;;5077168;28;20063;-57
2022/06/24 01:53:00;;;;;;;3.58;1.33;;;23.10;58.60;;;;;;5075801;28;20056;-56
2022/06/24 01:55:27;;;;;;;5.13;1.60;;;23.10;58.60;;;;;;5077074;28;20487;-58
2022/06/24 01:57:56;;;;;;;7.22;1.75;;;23.00;58.60;;;;;;5076208;28;20043;-58
2022/06/24 02:00:23;;;;;;;3.50;1.45;;;23.10;58.70;;;;;;5076669;28;20051;-59
2022/06/24 02:02:51;;;;;;;6.20;1.88;;;23.10;58.60;;;;;;5082089;28;20052;-55
2022/06/24 02:05:20;;;;;;;6.07;1.92;;;23.00;58.70;;;;;;5081033;28;20055;-57
2022/06/24 02:07:48;;;;;;;12.63;2.90;;;23.00;58.80;;;;;;5081907;28;20055;-58
2022/06/24 02:15:46;;;;;;;7.68;2.10;;;22.90;58.90;;;;;;5088330;28;20063;-52
2022/06/24 02:18:14;;;;;;;4.75;1.48;;;22.80;59.00;;;;;;5080494;28;20051;-56
2022/06/24 02:20:41;;;;;;;4.68;1.88;;;22.70;59.20;;;;;;5077514;28;20047;-58
2022/06/24 02:23:08;;;;;;;3.50;1.65;;;22.70;59.40;;;;;;5082368;28;20055;-58
2022/06/24 02:25:36;;;;;;;4.55;1.90;;;22.70;59.50;;;;;;5080956;28;20656;-56
2022/06/24 02:28:05;;;;;;;6.10;1.98;;;22.70;59.60;;;;;;5074435;28;20052;-54
2022/06/24 02:30:33;;;;;;;5.18;1.90;;;22.70;59.80;;;;;;5083856;28;20510;-56
2022/06/24 02:33:00;;;;;;;8.40;1.70;;;22.60;59.70;;;;;;5085424;28;20060;-56
2022/06/24 02:35:28;;;;;;;6.38;1.92;;;22.60;59.70;;;;;;5080918;28;20608;-56
2022/06/24 02:37:55;;;;;;;3.55;1.85;;;22.60;59.80;;;;;;5075629;28;20063;-58
2022/06/24 02:43:14;;;;;;;5.15;1.92;;;22.60;59.70;;;;;;5086883;28;20059;-53
2022/06/24 02:45:42;;;;;;;;;;;22.60;59.80;;;;;;5079657;28;20063;-54
2022/06/24 02:48:09;;;;;;;8.02;1.48;;;22.70;59.40;;;;;;5082115;28;19939;-58
2022/06/24 02:50:41;;;;;;;5.43;2.25;;;22.70;59.20;;;;;;5083100;28;20051;-56
2022/06/24 02:53:08;;;;;;;5.35;1.50;;;22.60;59.50;;;;;;5079882;28;20411;-53
2022/06/24 02:55:37;;;;;;;4.90;1.90;;;22.60;59.40;;;;;;5081417;28;20056;-55
2022/06/24 02:58:05;;;;;;;3.70;1.63;;;22.60;59.50;;;;;;5076469;28;20051;-59
2022/06/24 03:00:34;;;;;;;4.65;1.50;;;22.60;59.50;;;;;;5079611;28;20503;-57
2022/06/24 03:03:02;;;;;;;5.07;1.75;;;22.50;59.50;;;;;;5077036;28;20056;-57
2022/06/24 03:05:29;;;;;;;5.05;1.40;;;22.50;59.50;;;;;;5077145;28;20044;-59
2022/06/24 03:07:57;;;;;;;6.63;1.80;;;22.50;59.60;;;;;;5083328;28;20514;-58
2022/06/24 03:10:24;;;;;;;3.90;1.45;;;22.50;59.60;;;;;;5081701;28;20048;-57
2022/06/24 03:12:52;;;;;;;2.70;1.40;;;22.50;59.70;;;;;;5079030;28;20478;-57
2022/06/24 03:15:20;;;;;;;4.05;1.35;;;22.50;59.70;;;;;;5079151;28;20055;-55
2022/06/24 03:17:49;;;;;;;5.88;1.55;;;22.50;59.80;;;;;;5076410;28;20059;-58
2022/06/24 03:20:17;;;;;;;5.40;1.48;;;22.50;59.80;;;;;;5079480;28;20048;-56
2022/06/24 03:22:44;;;;;;;5.28;1.85;;;22.40;59.70;;;;;;5080006;28;20059;-52
2022/06/24 03:25:12;;;;;;;8.93;1.50;;;22.40;59.70;;;;;;5079298;28;20043;-55
2022/06/24 03:27:40;;;;;;;7.03;1.63;;;22.40;59.70;;;;;;5081178;28;20075;-57
2022/06/24 03:30:10;;;;;;;5.07;2.03;;;22.40;59.70;;;;;;5080331;28;20063;-55
2022/06/24 03:32:37;;;;;;;7.43;1.77;;;22.40;59.80;;;;;;5079483;28;20040;-55
2022/06/24 03:35:08;;;;;;;7.10;1.67;;;22.40;59.60;;;;;;5077885;28;20048;-53
2022/06/24 03:37:36;;;;;;;5.60;2.10;;;22.40;59.70;;;;;;5079367;28;20051;-54
2022/06/24 03:40:04;;;;;;;4.95;1.80;;;22.40;59.70;;;;;;5081508;28;20051;-58
2022/06/24 03:42:31;;;;;;;6.43;1.70;;;22.30;59.70;;;;;;5078068;28;20518;-58
2022/06/24 03:44:59;;;;;;;6.15;1.83;;;22.30;59.80;;;;;;5082681;28;20048;-55
2022/06/24 03:47:26;;;;;;;3.83;1.42;;;22.30;59.90;;;;;;5078297;28;20051;-52
2022/06/24 03:49:54;;;;;;;3.20;1.70;;;22.30;59.90;;;;;;5080466;28;20052;-54
2022/06/24 03:52:23;;;;;;;6.18;1.73;;;22.30;59.90;;;;;;5078842;28;20135;-55
2022/06/24 03:54:50;;;;;;;8.75;1.60;;;22.30;60.00;;;;;;5079375;28;20057;-54
2022/06/24 03:57:18;;;;;;;8.10;1.73;;;22.30;60.00;;;;;;5082670;28;20055;-58
2022/06/24 03:59:45;;;;;;;7.95;1.73;;;22.30;60.40;;;;;;5077887;28;20048;-55
2022/06/24 04:02:13;;;;;;;2.95;1.42;;;22.30;60.00;;;;;;5081045;28;20407;-56
2022/06/24 04:04:40;;;;;;;5.10;1.50;;;22.30;60.10;;;;;;5081574;28;20063;-52
2022/06/24 04:07:07;;;;;;;5.47;1.67;;;22.30;60.10;;;;;;5082348;28;20524;-55
2022/06/24 04:09:36;;;;;;;7.75;2.15;;;22.30;60.20;;;;;;5081681;28;20076;-55
2022/06/24 04:12:05;;;;;;;4.65;1.80;;;22.30;60.30;;;;;;5078951;28;20060;-57
2022/06/24 04:17:17;;;;;;;9.35;1.88;;;22.30;60.30;;;;;;5079535;28;20093;-54
2022/06/24 04:19:45;;;;;;;5.78;1.80;;;22.20;60.20;;;;;;5070850;28;20055;-57
2022/06/24 04:22:12;;;;;;;6.53;2.15;;;22.20;60.20;;;;;;5076358;28;20064;-57
2022/06/24 04:24:41;;;;;;;5.07;2.13;;;22.20;60.30;;;;;;5079893;28;20055;-58
2022/06/24 04:27:09;;;;;;;4.25;1.90;;;22.20;60.60;;;;;;5080698;28;20510;-54
2022/06/24 04:29:37;;;;;;;4.68;1.63;;;22.20;60.60;;;;;;5075906;28;20048;-53
2022/06/24 04:32:05;;;;;;;5.38;2.10;;;22.20;60.70;;;;;;5075430;28;20048;-52
2022/06/24 04:34:33;;;;;;;8.98;3.85;;;22.20;60.70;;;;;;5078396;28;20052;-56
2022/06/24 04:37:00;;;;;;;15.60;7.65;;;22.20;60.80;;;;;;5078075;28;20113;-54
2022/06/24 04:39:28;;;;;;;15.90;6.13;;;22.10;60.80;;;;;;5080895;28;20063;-55
2022/06/24 04:41:57;;;;;;;4.90;2.70;;;22.20;60.90;;;;;;5075259;28;20044;-58
2022/06/24 04:44:24;;;;;;;6.55;2.30;;;22.20;61.00;;;;;;5078957;28;20059;-56
2022/06/24 04:46:52;;;;;;;6.35;2.00;;;22.10;60.90;;;;;;5079017;28;20060;-55
2022/06/24 04:49:19;;;;;;;4.63;1.25;;;22.20;61.00;;;;;;5076686;28;20059;-53
2022/06/24 04:51:47;;;;;;;3.58;1.60;;;22.20;61.00;;;;;;5072709;28;20048;-54
2022/06/24 04:54:14;;;;;;;4.32;1.73;;;22.20;61.10;;;;;;5075401;28;20048;-58
2022/06/24 04:56:41;;;;;;;6.72;1.80;;;22.20;61.10;;;;;;5078864;28;20426;-53
2022/06/24 04:59:10;;;;;;;3.28;1.88;;;22.20;61.10;;;;;;5078309;28;20048;-50
2022/06/24 05:01:38;;;;;;;7.38;1.75;;;22.20;61.20;;;;;;5075198;28;20514;-50
2022/06/24 05:04:06;;;;;;;3.58;1.17;;;22.20;61.40;;;;;;5078851;28;20058;-52
2022/06/24 05:06:34;;;;;;;3.17;1.27;;;22.20;61.30;;;;;;5077941;28;20048;-50
2022/06/24 05:09:02;;;;;;;6.32;1.30;;;22.30;61.20;;;;;;5080566;28;20055;-52
2022/06/24 05:11:29;;;;;;;4.18;1.67;;;22.30;61.10;;;;;;5079988;28;20500;-53
2022/06/24 05:13:57;;;;;;;4.18;1.10;;;22.20;61.10;;;;;;5078535;28;20522;-53
2022/06/24 05:16:26;;;;;;;2.28;1.23;;;22.30;61.10;;;;;;5079608;28;20056;-58
2022/06/24 05:18:53;;;;;;;4.90;1.88;;;22.30;61.10;;;;;;5076438;28;20058;-53
2022/06/24 05:21:21;;;;;;;4.75;1.05;;;22.30;61.00;;;;;;5077528;28;20044;-54
2022/06/24 05:23:48;;;;;;;4.70;1.50;;;22.30;60.90;;;;;;5078159;28;20059;-51
2022/06/24 05:26:15;;;;;;;5.25;1.50;;;22.30;60.90;;;;;;5081435;28;20044;-51
2022/06/24 05:28:43;;;;;;;3.58;1.30;;;22.30;61.00;;;;;;5077168;28;20056;-56
2022/06/24 05:31:10;;;;;;;6.28;1.40;;;22.30;61.00;;;;;;5078796;28;20487;-56
2022/06/24 05:33:39;;;;;;;4.53;1.20;;;22.30;61.10;;;;;;5075493;28;20048;-52
2022/06/24 05:36:07;;;;;;;5.38;1.60;;;22.30;61.10;;;;;;5076273;28;20052;-56
2022/06/24 05:38:35;;;;;;;5.18;1.48;;;22.40;61.20;;;;;;5074750;28;20063;-57
2022/06/24 05:41:03;;;;;;;8.38;1.60;;;22.40;61.20;;;;;;5073937;28;20047;-53
2022/06/24 05:43:31;;;;;;;8.70;1.65;;;22.40;61.10;;;;;;5073058;28;20063;-54
2022/06/24 05:45:58;;;;;;;5.50;1.50;;;22.40;61.30;;;;;;5074050;28;20423;-52
2022/06/24 05:48:27;;;;;;;4.35;1.50;;;22.40;61.10;;;;;;5077727;28;20044;-57
2022/06/24 05:50:56;;;;;;;5.70;1.55;;;22.40;61.10;;;;;;5074303;28;20055;-54
2022/06/24 05:56:08;;;;;;;2.65;1.10;;;22.50;61.30;;;;;;5085269;28;20255;-51
2022/06/24 05:58:35;;;;;;;3.30;0.98;;;22.50;61.20;;;;;;5077571;28;20088;-53
2022/06/24 06:01:10;;;;;;;5.35;1.92;;;22.50;61.30;;;;;;5078405;28;20048;-58
2022/06/24 06:03:38;;;;;;;2.80;1.00;;;22.50;61.30;;;;;;5083039;28;20056;-53
2022/06/24 06:06:08;;;;;;;3.33;1.52;;;22.50;61.10;;;;;;5082274;28;20059;-54
2022/06/24 06:08:37;;;;;;;3.35;1.25;;;22.50;61.60;;;;;;5079499;28;20059;-56
2022/06/24 06:11:11;;;;;;;5.57;1.30;;;22.50;61.20;;;;;;5075967;28;20048;-52
2022/06/24 06:13:39;;;;;;;3.40;1.73;;;22.60;61.30;;;;;;5075868;28;20434;-55
2022/06/24 06:16:06;;;;;;;5.88;1.58;;;22.60;61.30;;;;;;5077724;28;20052;-58
2022/06/24 06:18:34;;;;;;;2.42;1.17;;;22.70;61.40;;;;;;5076415;28;20402;-52
2022/06/24 06:21:02;;;;;;;2.72;1.00;;;22.70;61.40;;;;;;5079468;28;20067;-52
2022/06/24 06:23:31;;;;;;;13.10;6.90;;;22.70;61.30;;;;;;5074453;28;20048;-54
2022/06/24 06:25:59;;;;;;;19.10;9.85;;;22.80;61.50;;;;;;5078940;28;20067;-55
2022/06/24 06:28:27;;;;;;;8.27;3.55;;;22.80;61.50;;;;;;5075303;28;20060;-57
2022/06/24 06:30:54;;;;;;;5.43;1.80;;;22.80;61.60;;;;;;5075920;28;20502;-58
2022/06/24 06:33:22;;;;;;;4.85;1.73;;;22.90;61.40;;;;;;5077350;28;20063;-57
2022/06/24 06:35:49;;;;;;;4.13;1.80;;;23.00;61.50;;;;;;5077080;28;20059;-58
2022/06/24 06:38:17;;;;;;;2.75;1.40;;;23.00;61.50;;;;;;5077805;28;20052;-53
2022/06/24 06:40:46;;;;;;;7.50;1.63;;;23.10;61.60;;;;;;5079462;28;20691;-52
2022/06/24 06:43:13;;;;;;;3.05;1.52;;;23.10;61.60;;;;;;5075319;28;20066;-55
2022/06/24 06:45:40;;;;;;;2.72;1.55;;;23.10;61.00;;;;;;5076946;28;20052;-54
2022/06/24 06:48:09;;;;;;;9.23;1.70;;;23.10;60.80;;;;;;5080238;28;20047;-56
2022/06/24 06:50:36;;;;;;;3.50;1.38;;;23.20;60.70;;;;;;5079363;28;20051;-52
2022/06/24 06:53:04;;;;;;;5.43;1.40;;;23.30;60.70;;;;;;5079716;28;20040;-54
2022/06/24 06:55:32;;;;;;;6.45;1.80;;;23.30;60.40;;;;;;5081250;28;20070;-51
2022/06/24 06:58:00;;;;;;;2.55;1.33;;;23.30;60.20;;;;;;5078345;28;20411;-53
2022/06/24 07:00:28;;;;;;;6.70;1.75;;;23.40;60.70;;;;;;5076608;28;20399;-51
2022/06/24 07:02:56;;;;;;;7.38;1.48;;;23.40;60.80;;;;;;5078004;28;20055;-52
2022/06/24 07:05:23;;;;;;;7.43;1.60;;;23.50;60.70;;;;;;5081035;28;20074;-48
2022/06/24 07:07:50;;;;;;;5.50;1.40;;;23.50;60.30;;;;;;5079118;28;20063;-52
2022/06/24 07:10:18;;;;;;;4.65;1.60;;;23.60;59.90;;;;;;5081722;28;20052;-49
2022/06/24 07:12:45;;;;;;;5.40;1.58;;;23.60;59.70;;;;;;5077937;28;20512;-56
2022/06/24 07:15:16;;;;;;;6.03;1.83;;;23.70;59.40;;;;;;5078611;28;20055;-51
2022/06/24 07:17:44;;;;;;;4.78;1.92;;;23.70;59.10;;;;;;5078386;28;20052;-50
2022/06/24 07:20:12;;;;;;;5.47;2.13;;;23.70;59.20;;;;;;5077830;28;20060;-53
2022/06/24 07:22:40;;;;;;;3.47;1.55;;;23.80;59.30;;;;;;5075488;28;20051;-55
2022/06/24 07:25:08;;;;;;;4.78;2.00;;;23.80;59.00;;;;;;5076922;28;20056;-56
2022/06/24 07:27:36;;;;;;;2.85;1.67;;;23.80;59.20;;;;;;5080239;28;20056;-50
2022/06/24 07:30:05;;;;;;;3.88;1.73;;;23.80;59.20;;;;;;5079280;28;20056;-49
2022/06/24 07:32:33;;;;;;;5.53;1.83;;;23.90;59.30;;;;;;5078199;28;20492;-50
2022/06/24 07:35:01;;;;;;;6.25;1.80;;;23.90;59.10;;;;;;5081321;28;20078;-49
2022/06/24 07:37:29;;;;;;;3.10;1.95;;;23.90;59.20;;;;;;5076795;28;20052;-54
2022/06/24 07:39:56;;;;;;;4.60;1.80;;;23.90;59.10;;;;;;5077753;28;20048;-55
2022/06/24 07:42:23;;;;;;;7.35;2.05;;;24.00;58.90;;;;;;5078347;28;20055;-51
2022/06/24 07:44:51;;;;;;;2.70;1.50;;;23.90;58.70;;;;;;5079198;28;20491;-56
2022/06/24 07:47:18;;;;;;;4.63;1.58;;;24.00;58.50;;;;;;5078275;28;20126;-53
2022/06/24 07:49:47;;;;;;;5.82;1.77;;;24.00;58.20;;;;;;5082798;28;20052;-49
2022/06/24 07:52:15;;;;;;;5.00;2.00;;;24.00;57.70;;;;;;5078669;28;20051;-49
2022/06/24 07:54:42;;;;;;;7.47;2.17;;;23.90;57.60;;;;;;5079647;28;20048;-50
2022/06/24 07:57:08;;;;;;;3.83;2.20;;;23.90;57.50;;;;;;5075858;28;20063;-54
2022/06/24 07:59:37;;;;;;;6.40;1.98;;;23.90;57.50;;;;;;5078870;28;20043;-49
2022/06/24 08:02:08;;;;;;;4.32;2.17;;;23.80;57.60;;;;;;5078920;28;20071;-53
2022/06/24 08:04:35;;;;;;;6.55;2.40;;;23.80;57.70;;;;;;5083505;28;20056;-48
2022/06/24 08:07:05;;;;;;;3.42;1.80;;;23.80;57.80;;;;;;5080735;28;20431;-49
2022/06/24 08:09:32;;;;;;;4.72;1.85;;;23.80;58.10;;;;;;5080909;28;20048;-50
2022/06/24 08:12:00;;;;;;;3.17;2.10;;;23.70;58.30;;;;;;5077643;28;20052;-49
2022/06/24 08:14:28;;;;;;;7.47;2.78;;;23.70;58.30;;;;;;5072956;28;20056;-49
2022/06/24 08:16:56;;;;;;;6.85;2.20;;;23.70;58.30;;;;;;5067306;28;20055;-48
2022/06/24 08:19:24;;;;;;;4.55;2.08;;;23.80;58.30;;;;;;5076009;28;20495;-49
2022/06/24 08:21:51;;;;;;;5.80;2.03;;;23.70;58.50;;;;;;5076043;28;20491;-49
2022/06/24 08:24:20;;;;;;;6.20;2.00;;;23.80;58.60;;;;;;5081986;28;20063;-48
2022/06/24 08:26:47;;;;;;;6.47;2.38;;;23.80;58.50;;;;;;5079167;28;20056;-53
2022/06/24 08:29:15;;;;;;;9.52;2.55;;;23.80;58.40;;;;;;5073299;28;20380;-53
2022/06/24 08:31:42;;;;;;;6.47;2.10;;;23.80;58.00;;;;;;5072281;28;20048;-56
2022/06/24 08:34:09;;;;;;;3.50;1.58;;;23.80;57.60;;;;;;5079601;28;20062;-52
2022/06/24 08:36:37;;;;;;;6.40;1.85;;;23.70;57.30;;;;;;5073938;28;20052;-54
2022/06/24 08:39:06;;;;;;;2.80;1.67;;;23.60;57.00;;;;;;5078405;28;20052;-55
2022/06/24 08:41:41;;;;;;;7.00;1.38;;;23.50;57.00;;;;;;5075607;28;20048;-57
2022/06/24 08:44:09;;;;;;;5.43;1.52;;;23.40;57.30;;;;;;5075313;28;20427;-49
2022/06/24 08:46:43;;;;;;;3.72;1.40;;;23.30;57.20;;;;;;5076589;28;20052;-48
2022/06/24 08:49:11;;;;;;;3.40;1.20;;;23.10;57.30;;;;;;5081186;28;20059;-49
2022/06/24 08:51:38;;;;;;;1.90;1.20;;;22.90;57.50;;;;;;5066778;28;21413;-56
2022/06/24 08:54:08;;;;;;;8.70;1.45;;;22.90;57.90;;;;;;5077898;28;20059;-50
2022/06/24 08:56:37;;;;;;;3.47;1.38;;;22.80;58.20;;;;;;5077179;28;20123;-49
2022/06/24 08:59:05;;;;;;;2.35;1.25;;;22.70;58.60;;;;;;5078967;28;20495;-51
2022/06/24 09:01:41;;;;;;;5.10;1.60;;;22.60;58.90;;;;;;5075043;28;20044;-50
2022/06/24 09:04:09;;;;;;;4.63;1.58;;;22.60;59.30;;;;;;5073565;28;20095;-50
2022/06/24 09:06:39;;;;;;;3.28;1.52;;;22.50;59.40;;;;;;5065436;28;20052;-54
2022/06/24 09:09:06;;;;;;;1.42;1.20;;;22.50;59.80;;;;;;5077542;28;20052;-50
2022/06/24 09:11:40;;;;;;;3.95;1.55;;;22.40;60.00;;;;;;5075947;28;20063;-49
2022/06/24 09:14:08;;;;;;;2.33;1.58;;;22.40;60.50;;;;;;5075101;28;20051;-49
2022/06/24 09:16:37;;;;;;;1.75;1.10;;;22.40;61.00;;;;;;5072594;28;20052;-50
2022/06/24 09:19:06;;;;;;;3.80;1.55;;;22.40;61.20;;;;;;5074271;28;20051;-54
2022/06/24 09:21:39;;;;;;;5.20;1.60;;;22.50;61.50;;;;;;5074435;28;20062;-51
2022/06/24 09:24:08;;;;;;;5.97;2.20;;;22.50;61.60;;;;;;5074993;28;20052;-50
2022/06/24 09:26:39;;;;;;;3.08;1.70;;;22.60;63.10;;;;;;5079815;28;20048;-53
2022/06/24 09:29:08;;;;;;;3.15;1.92;;;22.60;62.70;;;;;;5073607;28;20052;-52
2022/06/24 09:31:36;;;;;;;4.28;2.00;;;22.70;62.80;;;;;;5056006;28;21079;-55
2022/06/24 09:34:12;;;;;;;2.72;1.60;;;22.80;63.30;;;;;;5078697;28;20052;-56
2022/06/24 09:36:41;;;;;;;1.98;1.73;;;22.80;62.50;;;;;;5065408;28;20059;-51
2022/06/24 09:39:11;;;;;;;3.80;2.00;;;22.90;62.60;;;;;;5059729;28;20055;-49
2022/06/24 09:41:45;;;;;;;2.72;2.15;;;22.90;61.80;;;;;;5056969;28;20499;-50
2022/06/24 09:44:13;;;;;;;4.03;1.90;;;22.90;62.20;;;;;;5069274;28;20048;-52
2022/06/24 09:46:41;;;;;;;3.92;1.90;;;22.90;62.10;;;;;;5071125;28;20055;-49
2022/06/24 09:49:11;;;;;;;4.25;1.85;;;22.90;62.10;;;;;;5072400;28;20059;-48
2022/06/24 09:51:39;;;;;;;4.03;1.88;;;22.90;62.50;;;;;;5073404;28;20056;-47
2022/06/24 09:54:07;;;;;;;2.22;1.70;;;22.90;61.40;;;;;;5079129;28;20082;-54
2022/06/24 09:56:36;;;;;;;2.17;1.80;;;22.90;61.90;;;;;;5076958;28;20419;-51
2022/06/24 10:01:53;;;;;;;2.17;1.67;;;23.00;62.30;;;;;;5076471;28;20059;-52
2022/06/24 10:04:22;;;;;;;4.78;1.92;;;23.00;61.00;;;;;;5073382;28;20051;-49
2022/06/24 10:06:51;;;;;;;3.17;2.05;;;22.90;61.50;;;;;;5068657;28;20045;-49
2022/06/24 10:09:24;;;;;;;3.95;1.90;;;23.00;62.90;;;;;;5077056;28;20052;-47
2022/06/24 10:11:53;;;;;;;2.90;1.60;;;23.00;63.40;;;;;;5067940;28;20052;-50
2022/06/24 10:14:24;;;;;;;1.95;1.40;;;23.10;63.80;;;;;;5072308;28;20364;-48
2022/06/24 10:16:52;;;;;;;4.28;1.83;;;23.10;63.90;;;;;;5076014;28;20051;-48
2022/06/24 10:19:24;;;;;;;3.30;2.00;;;23.20;63.90;;;;;;5074771;28;20503;-49
2022/06/24 10:21:52;;;;;;;2.85;1.73;;;23.30;63.50;;;;;;5078205;28;20052;-48
2022/06/24 10:24:20;;;;;;;3.60;1.95;;;23.40;63.40;;;;;;5072633;28;20055;-50
2022/06/24 10:26:51;;;;;;;5.47;1.90;;;23.50;62.20;;;;;;5082548;28;20047;-56
2022/06/24 10:29:28;;;;;;;3.65;2.10;;;23.50;60.00;;;;;;5080504;28;20052;-50
2022/06/24 10:32:00;;;;;;;5.95;2.20;;;23.60;61.10;;;;;;5076765;28;20067;-49
2022/06/24 10:34:30;;;;;;;4.05;2.13;;;23.70;61.80;;;;;;5075323;28;20043;-55
2022/06/24 10:37:01;;;;;;;2.70;1.70;;;23.70;59.80;;;;;;5080281;28;20483;-52
2022/06/24 10:39:30;;;;;;;3.22;1.70;;;23.80;59.10;;;;;;5082265;28;20498;-50
2022/06/24 10:42:02;;;;;;;3.58;1.80;;;23.70;59.30;;;;;;5081236;28;20406;-48
2022/06/24 10:44:32;;;;;;;6.32;2.17;;;23.80;59.60;;;;;;5067099;28;20056;-49
2022/06/24 10:47:28;;;;;;;4.35;1.70;;;23.80;59.20;;;;;;5071398;28;20052;-53
2022/06/24 10:50:00;;;;;;;4.70;1.52;;;23.80;59.50;;;;;;5072812;28;20415;-57
2022/06/24 10:52:32;;;;;;;2.95;1.80;;;23.80;59.30;;;;;;5071243;28;20052;-49
2022/06/24 10:55:47;;;;;;;3.50;1.98;;;23.90;59.70;;;;;;5073948;28;20657;-53
2022/06/24 10:58:18;;;;;;;3.47;1.83;;;24.00;59.00;;;;;;5040036;28;20075;-52
2022/06/24 11:00:54;;;;;;;3.67;2.22;;;24.00;59.10;;;;;;5070750;28;20083;-49
2022/06/24 11:03:38;;;;;;;5.47;2.20;;;24.00;57.90;;;;;;5083216;28;20051;-54
2022/06/24 11:06:08;;;;;;;4.80;2.33;;;24.00;58.00;;;;;;5077474;28;20063;-49
2022/06/24 11:08:38;;;;;;;5.35;2.05;;;24.00;57.00;;;;;;5082051;28;20048;-48
2022/06/24 11:11:06;;;;;;;5.72;1.85;;;24.10;57.70;;;;;;5083184;28;20423;-49
2022/06/24 11:13:33;;;;;;;5.20;1.83;;;24.10;58.20;;;;;;5082862;28;20051;-53
2022/06/24 11:16:02;;;;;;;4.22;1.60;;;24.10;57.40;;;;;;5081043;28;20056;-51
2022/06/24 11:18:31;;;;;;;3.67;1.42;;;24.10;57.90;;;;;;5082705;28;20055;-53
2022/06/24 11:21:00;;;;;;;2.97;1.85;;;24.20;57.70;;;;;;5079800;28;20400;-52
2022/06/24 11:23:29;;;;;;;3.05;1.52;;;24.30;57.10;;;;;;5082701;28;20040;-58
2022/06/24 11:26:01;;;;;;;3.40;1.67;;;24.30;56.70;;;;;;5082733;28;20056;-49
2022/06/24 11:28:30;;;;;;;2.92;1.50;;;24.30;56.40;;;;;;5082161;28;20507;-50
2022/06/24 11:31:16;;;;;;;2.72;1.67;;;24.30;56.40;;;;;;5081712;28;20052;-52
2022/06/24 11:33:44;;;;;;;3.60;1.40;;;24.40;56.30;;;;;;5081055;28;20044;-48
2022/06/24 11:36:14;;;;;;;7.20;1.83;;;24.40;56.40;;;;;;5077460;28;20053;-56
2022/06/24 11:38:55;;;;;;;3.05;1.20;;;24.50;55.90;;;;;;5073461;28;20054;-58
2022/06/24 11:41:33;;;;;;;2.03;1.30;;;24.50;55.80;;;;;;5069673;28;20053;-49
2022/06/24 11:44:01;;;;;;;3.47;1.80;;;24.60;55.60;;;;;;5068270;28;20044;-52
2022/06/24 11:46:32;;;;;;;1.90;1.15;;;24.60;56.20;;;;;;5071744;28;20492;-52
2022/06/24 11:49:06;;;;;;;1.67;1.20;;;24.70;55.80;;;;;;5073686;28;20419;-49
2022/06/24 11:51:34;;;;;;;2.85;1.40;;;24.80;55.20;;;;;;5073646;28;20071;-53
2022/06/24 11:54:02;;;;;;;1.77;1.20;;;24.80;55.40;;;;;;5074380;28;20408;-50
2022/06/24 11:56:33;;;;;;;1.55;1.15;;;25.00;55.60;;;;;;5078436;28;20051;-50
2022/06/24 11:59:02;;;;;;;1.80;1.17;;;25.00;55.30;;;;;;5080025;28;20059;-51
2022/06/24 12:01:31;;;;;;;3.42;1.30;;;25.10;55.30;;;;;;5076537;28;20059;-49
2022/06/24 12:04:00;;;;;;;5.53;1.60;;;25.20;55.50;;;;;;5079329;28;20056;-56
2022/06/24 12:06:29;;;;;;;4.50;1.42;;;25.30;54.10;;;;;;5080569;28;20400;-51
2022/06/24 12:08:57;;;;;;;2.55;1.10;;;25.40;53.20;;;;;;5082887;28;20062;-49
2022/06/24 12:11:25;;;;;;;1.55;1.02;;;25.40;53.10;;;;;;5078823;28;20051;-51
2022/06/24 12:13:57;;;;;;;1.35;1.00;;;25.50;53.80;;;;;;5071815;28;20036;-48
2022/06/24 12:16:25;;;;;;;2.38;0.95;;;25.50;54.10;;;;;;5079952;28;20055;-51
2022/06/24 12:18:54;;;;;;;2.63;1.25;;;25.60;54.30;;;;;;5079607;28;20713;-49
2022/06/24 12:21:26;;;;;;;1.50;1.13;;;25.60;54.10;;;;;;5081970;28;20415;-48
2022/06/24 12:23:54;;;;;;;3.80;1.38;;;25.70;52.90;;;;;;5078986;28;20408;-55
2022/06/24 12:26:24;;;;;;;1.13;0.90;;;25.70;53.60;;;;;;5082512;28;20063;-48
2022/06/24 12:29:02;;;;;;;3.25;1.17;;;25.80;53.70;;;;;;5080901;28;20063;-54
2022/06/24 12:31:30;;;;;;;1.75;1.33;;;25.80;54.10;;;;;;5083179;28;20407;-50
2022/06/24 12:33:59;;;;;;;2.45;1.00;;;25.90;53.90;;;;;;5082501;28;20055;-50
2022/06/24 12:36:36;;;;;;;3.67;1.10;;;25.90;53.30;;;;;;5081897;28;20067;-49
2022/06/24 12:39:06;;;;;;;2.60;1.40;;;26.00;53.30;;;;;;5081091;28;20052;-50
2022/06/24 12:41:45;;;;;;;2.15;1.08;;;26.00;53.70;;;;;;5081962;28;20052;-50
2022/06/24 12:44:13;;;;;;;2.25;1.05;;;26.10;53.90;;;;;;5079187;28;20066;-50
2022/06/24 12:52:33;;;;;;;1.70;1.23;;;26.20;53.20;;;;;;5070935;28;20070;-55
2022/06/24 12:55:01;;;;;;;2.30;1.10;;;26.30;53.10;;;;;;5074492;28;20051;-51
2022/06/24 12:57:29;;;;;;;2.63;1.10;;;26.30;53.00;;;;;;5072066;28;20062;-52
2022/06/24 12:59:56;;;;;;;0.93;0.90;;;26.40;52.00;;;;;;5068707;28;20044;-54
2022/06/24 13:02:24;;;;;;;1.58;1.00;;;26.40;51.90;;;;;;5070184;28;20717;-50
2022/06/24 13:04:53;;;;;;;3.08;1.20;;;26.40;51.60;;;;;;5069681;28;20055;-52
2022/06/24 13:07:20;;;;;;;4.22;1.20;;;26.40;51.40;;;;;;5075476;28;20052;-54
2022/06/24 13:09:47;;;;;;;4.07;1.20;;;26.50;52.00;;;;;;5069203;28;20075;-57
2022/06/24 13:12:15;;;;;;;3.08;1.23;;;26.50;51.50;;;;;;5069000;28;20518;-54
2022/06/24 13:14:44;;;;;;;2.22;1.10;;;26.50;51.30;;;;;;5078275;28;20052;-52
2022/06/24 13:17:11;;;;;;;2.33;1.25;;;26.60;51.30;;;;;;5076496;28;20079;-54
2022/06/24 13:19:39;;;;;;;1.75;1.00;;;26.60;51.40;;;;;;5078878;28;20079;-51